sensor_id;sensor_type;location;lat;lon;timestamp;pressure;altitude;pressure_sealevel;temperature;humidity
25238;BME280;13185;50.872;5.306;2022-12-07T00:00:16;101555.16;;;4.25;100.00
25238;BME280;13185;50.872;5.306;2022-12-07T00:02:41;101548.06;;;4.25;100.00
25238;BME280;13185;50.872;5.306;2022-12-07T00:05:07;101537.41;;;4.27;100.00
25238;BME280;13185;50.872;5.306;2022-12-07T00:07:33;101541.84;;;4.26;100.00
25238;BME280;13185;50.872;5.306;2022-12-07T00:09:58;101536.56;;;4.25;100.00
25238;BME280;13185;50.872;5.306;2022-12-07T00:12:23;101541.97;;;4.22;100.00
25238;BME280;13185;50.872;5.306;2022-12-07T00:14:49;101534.06;;;4.20;100.00
25238;BME280;13185;50.872;5.306;2022-12-07T00:17:14;101538.44;;;4.21;100.00
25238;BME280;13185;50.872;5.306;2022-12-07T00:19:40;101532.28;;;4.21;100.00
25238;BME280;13185;50.872;5.306;2022-12-07T00:22:05;101528.78;;;4.19;100.00
25238;BME280;13185;50.872;5.306;2022-12-07T00:24:31;101530.53;;;4.20;100.00
25238;BME280;13185;50.872;5.306;2022-12-07T00:26:56;101525.28;;;4.18;100.00
25238;BME280;13185;50.872;5.306;2022-12-07T00:29:21;101522.63;;;4.17;100.00
25238;BME280;13185;50.872;5.306;2022-12-07T00:31:48;101530.59;;;4.17;100.00
25238;BME280;13185;50.872;5.306;2022-12-07T00:34:19;101528.84;;;4.17;100.00
25238;BME280;13185;50.872;5.306;2022-12-07T00:36:44;101527.13;;;4.15;100.00
25238;BME280;13185;50.872;5.306;2022-12-07T00:39:10;101519.25;;;4.12;100.00
25238;BME280;13185;50.872;5.306;2022-12-07T00:41:36;101520.94;;;4.14;100.00
25238;BME280;13185;50.872;5.306;2022-12-07T00:44:01;101519.19;;;4.13;100.00
25238;BME280;13185;50.872;5.306;2022-12-07T00:46:28;101531.66;;;4.11;100.00
25238;BME280;13185;50.872;5.306;2022-12-07T00:48:54;101526.41;;;4.10;100.00
25238;BME280;13185;50.872;5.306;2022-12-07T00:51:21;101521.03;;;4.11;100.00
25238;BME280;13185;50.872;5.306;2022-12-07T00:53:47;101518.34;;;4.13;100.00
25238;BME280;13185;50.872;5.306;2022-12-07T00:56:18;101518.34;;;4.13;100.00
25238;BME280;13185;50.872;5.306;2022-12-07T00:58:49;101522.78;;;4.12;100.00
25238;BME280;13185;50.872;5.306;2022-12-07T01:01:15;101516.59;;;4.12;100.00
25238;BME280;13185;50.872;5.306;2022-12-07T01:03:41;101517.47;;;4.12;100.00
25238;BME280;13185;50.872;5.306;2022-12-07T01:06:06;101521.00;;;4.13;100.00
25238;BME280;13185;50.872;5.306;2022-12-07T01:08:32;101521.84;;;4.13;100.00
25238;BME280;13185;50.872;5.306;2022-12-07T01:11:03;101511.28;;;4.12;100.00
25238;BME280;13185;50.872;5.306;2022-12-07T01:13:30;101517.56;;;4.09;100.00
25238;BME280;13185;50.872;5.306;2022-12-07T01:15:58;101521.13;;;4.08;100.00
25238;BME280;13185;50.872;5.306;2022-12-07T01:18:26;101513.16;;;4.08;100.00
25238;BME280;13185;50.872;5.306;2022-12-07T01:21:06;101514.00;;;4.10;100.00
25238;BME280;13185;50.872;5.306;2022-12-07T01:23:33;101513.13;;;4.10;100.00
25238;BME280;13185;50.872;5.306;2022-12-07T01:26:01;101517.56;;;4.09;100.00
25238;BME280;13185;50.872;5.306;2022-12-07T01:28:27;101517.50;;;4.11;100.00
25238;BME280;13185;50.872;5.306;2022-12-07T01:33:27;101513.91;;;4.13;100.00
25238;BME280;13185;50.872;5.306;2022-12-07T01:35:54;101518.28;;;4.14;100.00
25238;BME280;13185;50.872;5.306;2022-12-07T01:38:19;101520.91;;;4.16;100.00
25238;BME280;13185;50.872;5.306;2022-12-07T01:40:45;101530.59;;;4.18;100.00
25238;BME280;13185;50.872;5.306;2022-12-07T01:43:16;101527.88;;;4.20;100.00
25238;BME280;13185;50.872;5.306;2022-12-07T01:45:43;101517.25;;;4.20;100.00
25238;BME280;13185;50.872;5.306;2022-12-07T01:48:10;101519.88;;;4.21;100.00
25238;BME280;13185;50.872;5.306;2022-12-07T01:50:38;101522.53;;;4.21;100.00
25238;BME280;13185;50.872;5.306;2022-12-07T01:53:06;101526.03;;;4.22;100.00
25238;BME280;13185;50.872;5.306;2022-12-07T01:55:35;101521.59;;;4.22;100.00
25238;BME280;13185;50.872;5.306;2022-12-07T01:58:02;101522.56;;;4.20;100.00
25238;BME280;13185;50.872;5.306;2022-12-07T02:00:28;101514.66;;;4.18;100.00
25238;BME280;13185;50.872;5.306;2022-12-07T02:03:00;101521.75;;;4.18;100.00
25238;BME280;13185;50.872;5.306;2022-12-07T02:05:30;101520.88;;;4.17;100.00
25238;BME280;13185;50.872;5.306;2022-12-07T02:07:56;101521.75;;;4.16;100.00
25238;BME280;13185;50.872;5.306;2022-12-07T02:10:26;101509.41;;;4.15;100.00
25238;BME280;13185;50.872;5.306;2022-12-07T02:13:11;101518.34;;;4.13;100.00
25238;BME280;13185;50.872;5.306;2022-12-07T02:23:36;101507.91;;;4.05;100.00
25238;BME280;13185;50.872;5.306;2022-12-07T02:31:43;101515.16;;;4.00;100.00
25238;BME280;13185;50.872;5.306;2022-12-07T02:34:30;101509.84;;;4.00;100.00
25238;BME280;13185;50.872;5.306;2022-12-07T02:37:01;101507.19;;;4.00;100.00
25238;BME280;13185;50.872;5.306;2022-12-07T02:39:37;101495.69;;;3.99;100.00
25238;BME280;13185;50.872;5.306;2022-12-07T02:42:14;101508.06;;;4.00;100.00
25238;BME280;13185;50.872;5.306;2022-12-07T02:44:41;101500.09;;;4.00;100.00
25238;BME280;13185;50.872;5.306;2022-12-07T02:47:10;101509.78;;;4.01;100.00
25238;BME280;13185;50.872;5.306;2022-12-07T02:49:38;101500.91;;;4.02;100.00
25238;BME280;13185;50.872;5.306;2022-12-07T02:52:05;101507.09;;;4.03;100.00
25238;BME280;13185;50.872;5.306;2022-12-07T02:54:31;101502.69;;;4.02;100.00
25238;BME280;13185;50.872;5.306;2022-12-07T03:10:50;101508.16;;;3.97;100.00
25238;BME280;13185;50.872;5.306;2022-12-07T03:13:34;101501.97;;;3.97;100.00
25238;BME280;13185;50.872;5.306;2022-12-07T03:16:14;101502.84;;;3.96;100.00
25238;BME280;13185;50.872;5.306;2022-12-07T03:18:55;101500.19;;;3.96;100.00
25238;BME280;13185;50.872;5.306;2022-12-07T03:21:27;101499.34;;;3.95;100.00
25238;BME280;13185;50.872;5.306;2022-12-07T03:23:58;101502.84;;;3.97;100.00
25238;BME280;13185;50.872;5.306;2022-12-07T03:26:31;101497.53;;;3.97;100.00
25238;BME280;13185;50.872;5.306;2022-12-07T03:29:09;101505.50;;;3.97;100.00
25238;BME280;13185;50.872;5.306;2022-12-07T03:31:40;101504.59;;;3.98;100.00
25238;BME280;13185;50.872;5.306;2022-12-07T03:34:12;101499.31;;;3.97;100.00
25238;BME280;13185;50.872;5.306;2022-12-07T03:36:55;101505.50;;;3.96;100.00
25238;BME280;13185;50.872;5.306;2022-12-07T03:39:37;101493.16;;;3.95;100.00
25238;BME280;13185;50.872;5.306;2022-12-07T03:42:05;101497.66;;;3.93;100.00
25238;BME280;13185;50.872;5.306;2022-12-07T03:44:33;101497.69;;;3.91;100.00
25238;BME280;13185;50.872;5.306;2022-12-07T03:57:37;101497.69;;;3.91;100.00
25238;BME280;13185;50.872;5.306;2022-12-07T04:00:06;101494.16;;;3.91;100.00
25238;BME280;13185;50.872;5.306;2022-12-07T04:02:38;101482.69;;;3.90;100.00
25238;BME280;13185;50.872;5.306;2022-12-07T04:05:04;101480.03;;;3.90;100.00
25238;BME280;13185;50.872;5.306;2022-12-07T04:07:29;101483.66;;;3.88;100.00
25238;BME280;13185;50.872;5.306;2022-12-07T04:09:55;101488.13;;;3.86;100.00
25238;BME280;13185;50.872;5.306;2022-12-07T04:12:21;101487.38;;;3.81;100.00
25238;BME280;13185;50.872;5.306;2022-12-07T04:14:47;101484.81;;;3.78;100.00
25238;BME280;13185;50.872;5.306;2022-12-07T04:17:12;101483.97;;;3.75;100.00
25238;BME280;13185;50.872;5.306;2022-12-07T04:19:38;101487.59;;;3.71;100.00
25238;BME280;13185;50.872;5.306;2022-12-07T04:22:04;101482.44;;;3.67;100.00
25238;BME280;13185;50.872;5.306;2022-12-07T04:24:30;101486.16;;;3.60;100.00
25238;BME280;13185;50.872;5.306;2022-12-07T04:26:56;101491.59;;;3.55;100.00
25238;BME280;13185;50.872;5.306;2022-12-07T04:29:22;101494.38;;;3.49;100.00
25238;BME280;13185;50.872;5.306;2022-12-07T04:31:48;101495.44;;;3.42;100.00
25238;BME280;13185;50.872;5.306;2022-12-07T04:34:15;101489.25;;;3.41;100.00
25238;BME280;13185;50.872;5.306;2022-12-07T04:36:41;101500.88;;;3.37;100.00
25238;BME280;13185;50.872;5.306;2022-12-07T04:39:09;101500.09;;;3.34;100.00
25238;BME280;13185;50.872;5.306;2022-12-07T04:41:38;101500.19;;;3.29;100.00
25238;BME280;13185;50.872;5.306;2022-12-07T04:44:04;101493.22;;;3.25;100.00
25238;BME280;13185;50.872;5.306;2022-12-07T04:46:32;101492.41;;;3.22;100.00
25238;BME280;13185;50.872;5.306;2022-12-07T04:48:58;101495.97;;;3.21;100.00
25238;BME280;13185;50.872;5.306;2022-12-07T04:51:28;101488.94;;;3.19;100.00
25238;BME280;13185;50.872;5.306;2022-12-07T04:53:55;101485.38;;;3.21;100.00
25238;BME280;13185;50.872;5.306;2022-12-07T04:56:22;101488.88;;;3.21;100.00
25238;BME280;13185;50.872;5.306;2022-12-07T04:58:48;101484.44;;;3.22;100.00
25238;BME280;13185;50.872;5.306;2022-12-07T05:01:15;101480.06;;;3.21;100.00
25238;BME280;13185;50.872;5.306;2022-12-07T05:03:41;101479.22;;;3.18;100.00
25238;BME280;13185;50.872;5.306;2022-12-07T05:06:06;101476.66;;;3.15;100.00
25238;BME280;13185;50.872;5.306;2022-12-07T05:08:33;101482.81;;;3.17;100.00
25238;BME280;13185;50.872;5.306;2022-12-07T05:11:00;101489.84;;;3.18;100.00
25238;BME280;13185;50.872;5.306;2022-12-07T05:13:25;101488.00;;;3.21;100.00
25238;BME280;13185;50.872;5.306;2022-12-07T05:15:51;101481.84;;;3.20;100.00
25238;BME280;13185;50.872;5.306;2022-12-07T05:18:16;101485.50;;;3.16;100.00
25238;BME280;13185;50.872;5.306;2022-12-07T05:20:42;101484.72;;;3.11;100.00
25238;BME280;13185;50.872;5.306;2022-12-07T05:23:08;101485.78;;;3.04;100.00
25238;BME280;13185;50.872;5.306;2022-12-07T05:25:34;101490.31;;;2.99;100.00
25238;BME280;13185;50.872;5.306;2022-12-07T05:27:59;101489.56;;;2.94;100.00
25238;BME280;13185;50.872;5.306;2022-12-07T05:30:26;101486.97;;;2.90;100.00
25238;BME280;13185;50.872;5.306;2022-12-07T05:32:51;101481.69;;;2.89;100.00
25238;BME280;13185;50.872;5.306;2022-12-07T05:35:17;101485.38;;;2.83;100.00
25238;BME280;13185;50.872;5.306;2022-12-07T05:37:43;101481.94;;;2.78;100.00
25238;BME280;13185;50.872;5.306;2022-12-07T05:40:09;101487.31;;;2.75;100.00
25238;BME280;13185;50.872;5.306;2022-12-07T05:42:35;101491.84;;;2.70;100.00
25238;BME280;13185;50.872;5.306;2022-12-07T05:45:01;101489.31;;;2.66;100.00
25238;BME280;13185;50.872;5.306;2022-12-07T05:47:26;101483.19;;;2.64;100.00
25238;BME280;13185;50.872;5.306;2022-12-07T05:49:52;101486.72;;;2.63;100.00
25238;BME280;13185;50.872;5.306;2022-12-07T05:52:17;101481.47;;;2.61;100.00
25238;BME280;13185;50.872;5.306;2022-12-07T05:54:43;101474.41;;;2.60;100.00
25238;BME280;13185;50.872;5.306;2022-12-07T05:57:08;101484.97;;;2.63;100.00
25238;BME280;13185;50.872;5.306;2022-12-07T05:59:34;101481.31;;;2.67;100.00
25238;BME280;13185;50.872;5.306;2022-12-07T06:02:02;101471.56;;;2.69;100.00
25238;BME280;13185;50.872;5.306;2022-12-07T06:04:30;101476.00;;;2.69;100.00
25238;BME280;13185;50.872;5.306;2022-12-07T06:06:56;101477.72;;;2.70;100.00
25238;BME280;13185;50.872;5.306;2022-12-07T06:09:23;101479.41;;;2.74;100.00
25238;BME280;13185;50.872;5.306;2022-12-07T06:11:49;101474.94;;;2.76;100.00
25238;BME280;13185;50.872;5.306;2022-12-07T06:14:33;101479.25;;;2.80;100.00
25238;BME280;13185;50.872;5.306;2022-12-07T06:16:59;101485.41;;;2.82;100.00
25238;BME280;13185;50.872;5.306;2022-12-07T06:19:25;101477.44;;;2.83;100.00
25238;BME280;13185;50.872;5.306;2022-12-07T06:21:50;101478.25;;;2.85;100.00
25238;BME280;13185;50.872;5.306;2022-12-07T06:24:16;101479.09;;;2.87;100.00
25238;BME280;13185;50.872;5.306;2022-12-07T06:26:42;101484.34;;;2.89;100.00
25238;BME280;13185;50.872;5.306;2022-12-07T06:29:08;101486.97;;;2.90;100.00
25238;BME280;13185;50.872;5.306;2022-12-07T06:31:35;101483.41;;;2.93;100.00
25238;BME280;13185;50.872;5.306;2022-12-07T06:34:02;101479.78;;;2.96;100.00
25238;BME280;13185;50.872;5.306;2022-12-07T06:36:29;101477.06;;;2.99;100.00
25238;BME280;13185;50.872;5.306;2022-12-07T06:38:54;101479.66;;;3.00;100.00
25238;BME280;13185;50.872;5.306;2022-12-07T06:41:20;101484.06;;;3.03;100.00
25238;BME280;13185;50.872;5.306;2022-12-07T06:43:46;101485.75;;;3.05;100.00
25238;BME280;13185;50.872;5.306;2022-12-07T06:46:12;101489.28;;;3.06;100.00
25238;BME280;13185;50.872;5.306;2022-12-07T06:48:38;101490.13;;;3.06;100.00
25238;BME280;13185;50.872;5.306;2022-12-07T06:51:03;101495.34;;;3.09;100.00
25238;BME280;13185;50.872;5.306;2022-12-07T06:53:29;101492.75;;;3.08;100.00
25238;BME280;13185;50.872;5.306;2022-12-07T06:55:54;101485.72;;;3.07;100.00
25238;BME280;13185;50.872;5.306;2022-12-07T06:58:20;101489.28;;;3.06;100.00
25238;BME280;13185;50.872;5.306;2022-12-07T07:00:48;101484.88;;;3.05;100.00
25238;BME280;13185;50.872;5.306;2022-12-07T07:03:13;101484.06;;;3.03;100.00
25238;BME280;13185;50.872;5.306;2022-12-07T07:05:39;101488.47;;;3.02;100.00
25238;BME280;13185;50.872;5.306;2022-12-07T07:08:05;101479.66;;;3.00;100.00
25238;BME280;13185;50.872;5.306;2022-12-07T07:10:30;101489.44;;;2.98;100.00
25238;BME280;13185;50.872;5.306;2022-12-07T07:12:56;101490.38;;;2.96;100.00
25238;BME280;13185;50.872;5.306;2022-12-07T07:15:21;101492.25;;;2.92;100.00
25238;BME280;13185;50.872;5.306;2022-12-07T07:17:47;101487.91;;;2.88;100.00
25238;BME280;13185;50.872;5.306;2022-12-07T07:20:13;101496.81;;;2.85;100.00
25238;BME280;13185;50.872;5.306;2022-12-07T07:22:38;101489.81;;;2.83;100.00
25238;BME280;13185;50.872;5.306;2022-12-07T07:25:04;101484.56;;;2.80;100.00
25238;BME280;13185;50.872;5.306;2022-12-07T07:27:29;101487.25;;;2.78;100.00
25238;BME280;13185;50.872;5.306;2022-12-07T07:29:55;101480.28;;;2.74;100.00
25238;BME280;13185;50.872;5.306;2022-12-07T07:32:20;101486.56;;;2.69;100.00
25238;BME280;13185;50.872;5.306;2022-12-07T07:34:47;101495.44;;;2.68;100.00
25238;BME280;13185;50.872;5.306;2022-12-07T07:37:13;101484.97;;;2.63;100.00
25238;BME280;13185;50.872;5.306;2022-12-07T07:39:39;101493.84;;;2.60;100.00
25238;BME280;13185;50.872;5.306;2022-12-07T07:42:05;101492.13;;;2.58;100.00
25238;BME280;13185;50.872;5.306;2022-12-07T07:44:32;101485.06;;;2.57;100.00
25238;BME280;13185;50.872;5.306;2022-12-07T07:46:57;101495.66;;;2.57;100.00
25238;BME280;13185;50.872;5.306;2022-12-07T07:49:22;101495.72;;;2.55;100.00
25238;BME280;13185;50.872;5.306;2022-12-07T07:51:48;101494.00;;;2.53;100.00
25238;BME280;13185;50.872;5.306;2022-12-07T07:54:13;101500.16;;;2.53;100.00
25238;BME280;13185;50.872;5.306;2022-12-07T07:56:39;101489.66;;;2.50;100.00
25238;BME280;13185;50.872;5.306;2022-12-07T07:59:04;101499.38;;;2.48;100.00
25238;BME280;13185;50.872;5.306;2022-12-07T08:01:30;101507.41;;;2.45;100.00
25238;BME280;13185;50.872;5.306;2022-12-07T08:03:55;101500.41;;;2.43;100.00
25238;BME280;13185;50.872;5.306;2022-12-07T08:06:21;101504.88;;;2.39;100.00
25238;BME280;13185;50.872;5.306;2022-12-07T08:08:46;101495.28;;;2.34;100.00
25238;BME280;13185;50.872;5.306;2022-12-07T08:11:12;101502.38;;;2.33;100.00
25238;BME280;13185;50.872;5.306;2022-12-07T08:13:37;101504.13;;;2.33;100.00
25238;BME280;13185;50.872;5.306;2022-12-07T08:16:05;101512.94;;;2.33;100.00
25238;BME280;13185;50.872;5.306;2022-12-07T08:18:30;101512.94;;;2.33;100.00
25238;BME280;13185;50.872;5.306;2022-12-07T08:21:00;101522.66;;;2.33;100.00
25238;BME280;13185;50.872;5.306;2022-12-07T08:23:26;101522.69;;;2.31;100.00
25238;BME280;13185;50.872;5.306;2022-12-07T08:25:52;101528.84;;;2.33;100.00
25238;BME280;13185;50.872;5.306;2022-12-07T08:28:17;101521.72;;;2.35;100.00
25238;BME280;13185;50.872;5.306;2022-12-07T08:30:43;101519.91;;;2.37;100.00
25238;BME280;13185;50.872;5.306;2022-12-07T08:33:09;101515.50;;;2.38;100.00
25238;BME280;13185;50.872;5.306;2022-12-07T08:35:35;101519.88;;;2.39;100.00
25238;BME280;13185;50.872;5.306;2022-12-07T08:38:01;101524.25;;;2.40;100.00
25238;BME280;13185;50.872;5.306;2022-12-07T08:40:28;101529.56;;;2.41;100.00
25238;BME280;13185;50.872;5.306;2022-12-07T08:42:54;101526.00;;;2.42;100.00
25238;BME280;13185;50.872;5.306;2022-12-07T08:45:20;101533.88;;;2.45;100.00
25238;BME280;13185;50.872;5.306;2022-12-07T08:47:57;101526.75;;;2.47;100.00
25238;BME280;13185;50.872;5.306;2022-12-07T08:50:26;101524.06;;;2.50;100.00
25238;BME280;13185;50.872;5.306;2022-12-07T08:52:54;101525.75;;;2.54;100.00
25238;BME280;13185;50.872;5.306;2022-12-07T08:55:21;101522.09;;;2.58;100.00
25238;BME280;13185;50.872;5.306;2022-12-07T08:57:47;101519.38;;;2.63;100.00
25238;BME280;13185;50.872;5.306;2022-12-07T09:00:13;101520.13;;;2.68;100.00
25238;BME280;13185;50.872;5.306;2022-12-07T09:02:39;101518.31;;;2.72;100.00
25238;BME280;13185;50.872;5.306;2022-12-07T09:05:05;101517.28;;;2.77;100.00
25238;BME280;13185;50.872;5.306;2022-12-07T09:07:32;101518.94;;;2.83;100.00
25238;BME280;13185;50.872;5.306;2022-12-07T09:09:59;101517.13;;;2.85;100.00
25238;BME280;13185;50.872;5.306;2022-12-07T09:12:24;101517.06;;;2.88;100.00
25238;BME280;13185;50.872;5.306;2022-12-07T09:14:50;101516.97;;;2.91;100.00
25238;BME280;13185;50.872;5.306;2022-12-07T09:17:15;101518.63;;;2.97;100.00
25238;BME280;13185;50.872;5.306;2022-12-07T09:19:41;101515.78;;;3.06;100.00
25238;BME280;13185;50.872;5.306;2022-12-07T09:22:08;101520.78;;;3.18;100.00
25238;BME280;13185;50.872;5.306;2022-12-07T09:24:33;101524.00;;;3.31;100.00
25238;BME280;13185;50.872;5.306;2022-12-07T09:27:02;101531.69;;;3.41;100.00
25238;BME280;13185;50.872;5.306;2022-12-07T09:29:27;101524.38;;;3.51;100.00
25238;BME280;13185;50.872;5.306;2022-12-07T09:31:53;101518.81;;;3.62;100.00
25238;BME280;13185;50.872;5.306;2022-12-07T09:34:18;101525.66;;;3.70;100.00
25238;BME280;13185;50.872;5.306;2022-12-07T09:36:45;101528.13;;;3.78;100.00
25238;BME280;13185;50.872;5.306;2022-12-07T09:39:11;101518.19;;;3.85;100.00
25238;BME280;13185;50.872;5.306;2022-12-07T09:41:38;101526.94;;;3.90;100.00
25238;BME280;13185;50.872;5.306;2022-12-07T09:44:09;101517.13;;;3.92;100.00
25238;BME280;13185;50.872;5.306;2022-12-07T09:46:38;101511.78;;;3.93;100.00
25238;BME280;13185;50.872;5.306;2022-12-07T09:49:05;101510.03;;;3.92;100.00
25238;BME280;13185;50.872;5.306;2022-12-07T09:51:34;101506.53;;;3.92;100.00
25238;BME280;13185;50.872;5.306;2022-12-07T09:54:00;101503.88;;;3.92;100.00
25238;BME280;13185;50.872;5.306;2022-12-07T09:56:25;101497.66;;;3.93;100.00
25238;BME280;13185;50.872;5.306;2022-12-07T09:58:59;101490.56;;;3.93;100.00
25238;BME280;13185;50.872;5.306;2022-12-07T10:01:33;101493.22;;;3.93;100.00
25238;BME280;13185;50.872;5.306;2022-12-07T10:06:38;101499.53;;;3.89;100.00
25238;BME280;13185;50.872;5.306;2022-12-07T10:09:12;101492.53;;;3.85;100.00
25238;BME280;13185;50.872;5.306;2022-12-07T10:12:04;101491.72;;;3.83;100.00
25238;BME280;13185;50.872;5.306;2022-12-07T10:14:33;101492.66;;;3.81;100.00
25238;BME280;13185;50.872;5.306;2022-12-07T10:16:59;101493.53;;;3.81;100.00
25238;BME280;13185;50.872;5.306;2022-12-07T10:19:29;101486.44;;;3.82;100.00
25238;BME280;13185;50.872;5.306;2022-12-07T10:22:10;101487.22;;;3.87;100.00
25238;BME280;13185;50.872;5.306;2022-12-07T10:24:37;101484.38;;;3.93;100.00
25238;BME280;13185;50.872;5.306;2022-12-07T10:27:05;101482.38;;;4.01;100.00
25238;BME280;13185;50.872;5.306;2022-12-07T10:29:31;101472.47;;;4.08;100.00
25238;BME280;13185;50.872;5.306;2022-12-07T10:34:43;101468.66;;;4.16;100.00
25238;BME280;13185;50.872;5.306;2022-12-07T10:39:50;101462.97;;;4.30;100.00
25238;BME280;13185;50.872;5.306;2022-12-07T10:42:28;101465.31;;;4.41;100.00
25238;BME280;13185;50.872;5.306;2022-12-07T10:56:34;101461.78;;;4.70;100.00
25238;BME280;13185;50.872;5.306;2022-12-07T11:02:12;101456.31;;;4.74;100.00
25238;BME280;13185;50.872;5.306;2022-12-07T11:05:25;101452.75;;;4.75;100.00
25238;BME280;13185;50.872;5.306;2022-12-07T11:10:48;101436.78;;;4.75;100.00
25238;BME280;13185;50.872;5.306;2022-12-07T11:18:57;101424.97;;;4.85;100.00
25238;BME280;13185;50.872;5.306;2022-12-07T11:24:11;101421.81;;;5.01;100.00
25238;BME280;13185;50.872;5.306;2022-12-07T11:32:44;101401.66;;;5.20;100.00
25238;BME280;13185;50.872;5.306;2022-12-07T11:38:00;101405.41;;;5.39;100.00
25238;BME280;13185;50.872;5.306;2022-12-07T11:40:31;101405.16;;;5.47;100.00
25238;BME280;13185;50.872;5.306;2022-12-07T11:43:28;101396.91;;;5.55;100.00
25238;BME280;13185;50.872;5.306;2022-12-07T11:46:04;101395.81;;;5.60;100.00
25238;BME280;13185;50.872;5.306;2022-12-07T11:48:50;101394.03;;;5.61;100.00
25238;BME280;13185;50.872;5.306;2022-12-07T11:51:20;101389.63;;;5.60;100.00
25238;BME280;13185;50.872;5.306;2022-12-07T11:53:51;101390.56;;;5.59;100.00
25238;BME280;13185;50.872;5.306;2022-12-07T11:56:24;101388.63;;;5.64;100.00
25238;BME280;13185;50.872;5.306;2022-12-07T11:58:55;101383.97;;;5.69;100.00
25238;BME280;13185;50.872;5.306;2022-12-07T12:06:32;101371.03;;;5.83;100.00
25238;BME280;13185;50.872;5.306;2022-12-07T12:09:21;101376.91;;;5.93;100.00
25238;BME280;13185;50.872;5.306;2022-12-07T12:20:29;101362.09;;;6.09;100.00
25238;BME280;13185;50.872;5.306;2022-12-07T12:25:43;101354.84;;;6.13;100.00
25238;BME280;13185;50.872;5.306;2022-12-07T12:34:00;101351.78;;;6.23;100.00
25238;BME280;13185;50.872;5.306;2022-12-07T12:47:01;101341.53;;;6.13;100.00
25238;BME280;13185;50.872;5.306;2022-12-07T12:57:30;101332.81;;;6.09;100.00
25238;BME280;13185;50.872;5.306;2022-12-07T12:59:58;101325.69;;;6.10;100.00
25238;BME280;13185;50.872;5.306;2022-12-07T13:13:02;101320.59;;;6.27;100.00
25238;BME280;13185;50.872;5.306;2022-12-07T13:15:32;101321.44;;;6.27;100.00
25238;BME280;13185;50.872;5.306;2022-12-07T13:18:00;101324.91;;;6.29;100.00
25238;BME280;13185;50.872;5.306;2022-12-07T13:20:44;101319.66;;;6.28;100.00
25238;BME280;13185;50.872;5.306;2022-12-07T13:23:10;101316.91;;;6.29;100.00
25238;BME280;13185;50.872;5.306;2022-12-07T13:25:49;101314.25;;;6.29;100.00
25238;BME280;13185;50.872;5.306;2022-12-07T13:28:18;101316.22;;;6.24;100.00
25238;BME280;13185;50.872;5.306;2022-12-07T13:31:02;101301.31;;;6.20;100.00
25238;BME280;13185;50.872;5.306;2022-12-07T13:33:30;101300.38;;;6.21;100.00
25238;BME280;13185;50.872;5.306;2022-12-07T13:35:56;101307.50;;;6.21;100.00
25238;BME280;13185;50.872;5.306;2022-12-07T13:41:12;101302.16;;;6.21;100.00
25238;BME280;13185;50.872;5.306;2022-12-07T13:44:14;101299.50;;;6.21;100.00
25238;BME280;13185;50.872;5.306;2022-12-07T13:46:59;101289.56;;;6.26;100.00
25238;BME280;13185;50.872;5.306;2022-12-07T13:49:29;101288.41;;;6.31;100.00
25238;BME280;13185;50.872;5.306;2022-12-07T13:52:16;101281.66;;;6.45;100.00
25238;BME280;13185;50.872;5.306;2022-12-07T13:55:05;101272.03;;;6.62;99.17
25238;BME280;13185;50.872;5.306;2022-12-07T13:57:38;101270.00;;;6.69;99.17
25238;BME280;13185;50.872;5.306;2022-12-07T14:00:06;101273.47;;;6.71;98.89
25238;BME280;13185;50.872;5.306;2022-12-07T14:05:27;101267.25;;;6.71;98.31
25238;BME280;13185;50.872;5.306;2022-12-07T14:08:05;101270.25;;;6.63;98.13
25238;BME280;13185;50.872;5.306;2022-12-07T14:13:34;101260.09;;;6.51;98.95
25238;BME280;13185;50.872;5.306;2022-12-07T14:16:01;101269.16;;;6.47;99.47
25238;BME280;13185;50.872;5.306;2022-12-07T14:18:30;101264.81;;;6.44;100.00
25238;BME280;13185;50.872;5.306;2022-12-07T14:23:36;101258.13;;;6.34;100.00
25238;BME280;13185;50.872;5.306;2022-12-07T14:26:12;101271.00;;;6.23;100.00
25238;BME280;13185;50.872;5.306;2022-12-07T14:28:39;101263.44;;;6.12;100.00
25238;BME280;13185;50.872;5.306;2022-12-07T14:31:17;101265.59;;;6.02;100.00
25238;BME280;13185;50.872;5.306;2022-12-07T14:33:44;101258.84;;;5.94;100.00
25238;BME280;13185;50.872;5.306;2022-12-07T14:36:13;101254.81;;;5.84;99.38
25238;BME280;13185;50.872;5.306;2022-12-07T14:38:39;101247.78;;;5.81;99.72
25238;BME280;13185;50.872;5.306;2022-12-07T14:41:13;101247.09;;;5.76;99.75
25238;BME280;13185;50.872;5.306;2022-12-07T14:43:59;101251.63;;;5.74;100.00
25238;BME280;13185;50.872;5.306;2022-12-07T14:46:25;101247.19;;;5.73;100.00
25238;BME280;13185;50.872;5.306;2022-12-07T14:48:50;101251.72;;;5.71;100.00
25238;BME280;13185;50.872;5.306;2022-12-07T14:51:16;101245.47;;;5.72;100.00
25238;BME280;13185;50.872;5.306;2022-12-07T14:53:48;101232.16;;;5.72;100.00
25238;BME280;13185;50.872;5.306;2022-12-07T14:56:15;101242.81;;;5.72;100.00
25238;BME280;13185;50.872;5.306;2022-12-07T14:58:41;101233.03;;;5.72;100.00
25238;BME280;13185;50.872;5.306;2022-12-07T15:01:06;101227.84;;;5.69;100.00
25238;BME280;13185;50.872;5.306;2022-12-07T15:03:32;101226.16;;;5.67;100.00
25238;BME280;13185;50.872;5.306;2022-12-07T15:05:59;101219.19;;;5.64;100.00
25238;BME280;13185;50.872;5.306;2022-12-07T15:08:25;101229.88;;;5.63;100.00
25238;BME280;13185;50.872;5.306;2022-12-07T15:10:50;101231.78;;;5.59;100.00
25238;BME280;13185;50.872;5.306;2022-12-07T15:13:16;101229.19;;;5.58;100.00
25238;BME280;13185;50.872;5.306;2022-12-07T15:16:00;101229.25;;;5.56;100.00
25238;BME280;13185;50.872;5.306;2022-12-07T15:18:27;101220.41;;;5.56;100.00
25238;BME280;13185;50.872;5.306;2022-12-07T15:20:53;101222.13;;;5.57;100.00
25238;BME280;13185;50.872;5.306;2022-12-07T15:23:18;101225.78;;;5.54;100.00